createdAt,value
2019-03-13T00:00:01.081Z,10.80
2019-03-13T00:02:34.824Z,10.80
2019-03-13T00:05:06.765Z,10.80
2019-03-13T00:07:37.200Z,10.80
2019-03-13T00:10:08.801Z,10.90
2019-03-13T00:12:39.313Z,10.90
2019-03-13T00:15:10.259Z,10.90
2019-03-13T00:17:40.912Z,10.90
2019-03-13T00:20:11.745Z,10.90
2019-03-13T00:22:42.273Z,10.90
2019-03-13T00:25:12.954Z,10.90
2019-03-13T00:27:43.493Z,11.00
2019-03-13T00:30:15.778Z,11.00
2019-03-13T00:32:46.338Z,11.00
2019-03-13T00:35:16.948Z,11.00
2019-03-13T00:37:47.601Z,11.00
2019-03-13T00:40:18.056Z,11.00
2019-03-13T00:42:48.442Z,11.10
2019-03-13T00:45:18.933Z,11.10
2019-03-13T00:47:49.668Z,11.10
2019-03-13T00:50:25.158Z,11.10
2019-03-13T00:52:55.681Z,11.10
2019-03-13T00:55:26.206Z,11.20
2019-03-13T00:57:56.808Z,11.20
2019-03-13T01:01:04.592Z,11.20
2019-03-13T01:03:39.661Z,11.20
2019-03-13T01:06:14.505Z,11.20
2019-03-13T01:08:45.138Z,11.20
2019-03-13T01:11:15.669Z,11.20
2019-03-13T01:13:46.180Z,11.30
2019-03-13T01:16:17.075Z,11.30
2019-03-13T01:18:47.493Z,11.30
2019-03-13T01:21:18.093Z,11.30
2019-03-13T01:23:48.545Z,11.30
2019-03-13T01:26:18.974Z,11.30
2019-03-13T01:28:50.215Z,11.30
2019-03-13T01:31:38.472Z,11.30
2019-03-13T01:34:27.912Z,11.30
2019-03-13T01:36:58.517Z,11.30
2019-03-13T01:39:28.972Z,11.30
2019-03-13T01:42:02.561Z,11.30
2019-03-13T01:44:33.028Z,11.30
2019-03-13T01:47:03.568Z,11.30
2019-03-13T01:49:34.021Z,11.30
2019-03-13T01:52:04.429Z,11.30
2019-03-13T01:54:34.974Z,11.30
2019-03-13T01:57:05.440Z,11.30
2019-03-13T01:59:35.922Z,11.30
2019-03-13T02:02:06.361Z,11.30
2019-03-13T02:04:36.916Z,11.30
2019-03-13T02:07:07.453Z,11.30
2019-03-13T02:09:37.874Z,11.30
2019-03-13T02:12:08.351Z,11.30
2019-03-13T02:14:38.915Z,11.30
2019-03-13T02:17:09.516Z,11.30
2019-03-13T02:19:41.616Z,11.30
2019-03-13T02:22:12.028Z,11.30
2019-03-13T02:24:42.582Z,11.30
2019-03-13T02:27:13.090Z,11.30
2019-03-13T02:29:43.577Z,11.30
2019-03-13T02:32:14.106Z,11.30
2019-03-13T02:34:47.561Z,11.40
2019-03-13T02:37:18.060Z,11.40
2019-03-13T02:39:48.537Z,11.40
2019-03-13T02:42:19.025Z,11.40
2019-03-13T02:44:49.408Z,11.40
2019-03-13T02:47:19.877Z,11.40
2019-03-13T02:49:51.656Z,11.40
2019-03-13T02:52:22.134Z,11.40
2019-03-13T02:54:53.004Z,11.40
2019-03-13T02:57:23.542Z,11.40
2019-03-13T02:59:54.022Z,11.40
2019-03-13T03:02:35.483Z,11.40
2019-03-13T03:05:07.658Z,11.40
2019-03-13T03:07:38.188Z,11.40
2019-03-13T03:10:09.976Z,11.40
2019-03-13T03:12:40.407Z,11.40
2019-03-13T03:15:13.366Z,11.40
2019-03-13T03:17:43.868Z,11.40
2019-03-13T03:20:16.803Z,11.40
2019-03-13T03:22:47.436Z,11.40
2019-03-13T03:25:19.615Z,11.40
2019-03-13T03:27:50.203Z,11.40
2019-03-13T03:30:22.325Z,11.40
2019-03-13T03:32:52.900Z,11.50
2019-03-13T03:35:23.465Z,11.50
2019-03-13T03:37:53.953Z,11.50
2019-03-13T03:40:24.677Z,11.50
2019-03-13T03:42:55.201Z,11.50
2019-03-13T03:45:25.692Z,11.50
2019-03-13T03:47:56.204Z,11.50
2019-03-13T03:50:26.875Z,11.50
2019-03-13T03:52:57.426Z,11.50
2019-03-13T03:55:27.926Z,11.50
2019-03-13T03:57:58.369Z,11.40
2019-03-13T04:00:28.858Z,11.50
2019-03-13T04:02:59.362Z,11.50
2019-03-13T04:05:29.936Z,11.50
2019-03-13T04:08:00.389Z,11.50
2019-03-13T04:10:30.987Z,11.50
2019-03-13T04:13:01.454Z,11.50
2019-03-13T04:15:31.991Z,11.50
2019-03-13T04:18:02.449Z,11.50
2019-03-13T04:20:33.100Z,11.50
2019-03-13T04:23:03.562Z,11.60
2019-03-13T04:25:38.318Z,11.60
2019-03-13T04:28:08.850Z,11.60
2019-03-13T04:30:39.413Z,11.60
2019-03-13T04:33:10.034Z,11.60
2019-03-13T04:35:40.653Z,11.60
2019-03-13T04:38:11.266Z,11.60
2019-03-13T04:40:41.774Z,11.60
2019-03-13T04:43:12.345Z,11.60
2019-03-13T04:45:42.941Z,11.60
2019-03-13T04:48:13.409Z,11.60
2019-03-13T04:50:44.222Z,11.50
2019-03-13T04:53:14.861Z,11.60
2019-03-13T04:55:45.391Z,11.60
2019-03-13T04:58:15.856Z,11.60
2019-03-13T05:00:46.360Z,11.60
2019-03-13T05:03:16.819Z,11.60
2019-03-13T05:05:49.044Z,11.60
2019-03-13T05:08:23.176Z,11.60
2019-03-13T05:10:53.618Z,11.60
2019-03-13T05:13:25.201Z,11.60
2019-03-13T05:15:55.675Z,11.70
2019-03-13T05:18:26.141Z,11.60
2019-03-13T05:20:56.545Z,11.60
2019-03-13T05:23:26.989Z,11.60
2019-03-13T05:25:57.683Z,11.60
2019-03-13T05:28:28.141Z,11.60
2019-03-13T05:30:58.507Z,11.60
2019-03-13T05:33:28.938Z,11.60
2019-03-13T05:35:59.388Z,11.60
2019-03-13T05:38:29.790Z,11.60
2019-03-13T05:41:00.243Z,11.60
2019-03-13T05:43:30.633Z,11.60
2019-03-13T05:46:01.308Z,11.60
2019-03-13T05:48:31.761Z,11.60
2019-03-13T05:51:02.146Z,11.60
2019-03-13T05:53:32.798Z,11.60
2019-03-13T05:56:03.301Z,11.70
2019-03-13T05:58:33.669Z,11.70
2019-03-13T06:01:04.209Z,11.70
2019-03-13T06:03:36.683Z,11.70
2019-03-13T06:06:07.540Z,11.70
2019-03-13T06:08:40.010Z,11.70
2019-03-13T06:11:10.574Z,11.80
2019-03-13T06:13:41.257Z,11.80
2019-03-13T06:16:11.796Z,11.80
2019-03-13T06:18:42.364Z,11.80
2019-03-13T06:21:12.849Z,11.80
2019-03-13T06:23:43.303Z,11.90
2019-03-13T06:26:13.785Z,11.90
2019-03-13T06:28:44.312Z,11.90
2019-03-13T06:31:14.810Z,11.90
2019-03-13T06:33:45.402Z,11.90
2019-03-13T06:36:15.921Z,11.90
2019-03-13T06:38:46.366Z,12.00
2019-03-13T06:41:16.955Z,11.90
2019-03-13T06:43:50.243Z,12.00
2019-03-13T06:46:20.712Z,12.00
2019-03-13T06:48:51.241Z,12.00
2019-03-13T06:51:21.811Z,12.00
2019-03-13T06:53:52.349Z,12.00
2019-03-13T06:56:22.936Z,12.00
2019-03-13T06:59:13.738Z,12.00
2019-03-13T07:02:16.547Z,12.10
2019-03-13T07:04:59.384Z,12.10
2019-03-13T07:07:51.764Z,12.10
2019-03-13T07:10:31.734Z,12.10
2019-03-13T07:13:09.933Z,12.10
2019-03-13T07:15:48.109Z,12.10
2019-03-13T07:18:33.015Z,12.10
2019-03-13T07:21:12.615Z,12.20
2019-03-13T07:24:09.011Z,12.10
2019-03-13T07:27:01.644Z,12.20
2019-03-13T07:29:49.848Z,12.20
2019-03-13T07:32:39.282Z,12.20
2019-03-13T07:35:34.585Z,12.20
2019-03-13T07:38:30.002Z,12.20
2019-03-13T07:41:18.120Z,12.30
2019-03-13T07:44:06.337Z,12.30
2019-03-13T07:46:54.617Z,12.30
2019-03-13T07:49:48.870Z,12.30
2019-03-13T07:52:41.192Z,12.40
2019-03-13T07:55:22.782Z,12.40
2019-03-13T07:58:11.981Z,12.50
2019-03-13T08:00:52.227Z,12.50
2019-03-13T08:03:47.824Z,12.60
2019-03-13T08:06:36.141Z,12.70
2019-03-13T08:09:24.278Z,12.70
2019-03-13T08:12:12.570Z,12.80
2019-03-13T08:15:20.165Z,12.80
2019-03-13T08:18:09.538Z,12.80
2019-03-13T08:21:17.200Z,12.90
2019-03-13T08:24:17.177Z,13.00
2019-03-13T08:27:02.954Z,13.00
2019-03-13T08:29:58.276Z,13.10
2019-03-13T08:32:47.803Z,13.10
2019-03-13T08:35:39.574Z,13.20
2019-03-13T08:38:27.610Z,13.20
2019-03-13T08:41:29.582Z,13.20
2019-03-13T08:44:17.084Z,13.30
2019-03-13T08:47:06.629Z,13.30
2019-03-13T08:49:53.412Z,13.40
2019-03-13T08:52:55.023Z,13.40
2019-03-13T08:56:02.553Z,13.50
2019-03-13T08:58:58.050Z,13.50
2019-03-13T09:01:45.934Z,13.50
2019-03-13T09:04:35.450Z,13.50
2019-03-13T09:07:19.110Z,13.60
2019-03-13T09:10:08.500Z,13.60
2019-03-13T09:13:01.378Z,13.60
2019-03-13T09:15:57.576Z,13.70
2019-03-13T09:18:59.480Z,13.70
2019-03-13T09:21:47.577Z,13.70
2019-03-13T09:24:26.076Z,13.70
2019-03-13T09:27:14.186Z,13.80
2019-03-13T09:30:05.176Z,13.80
2019-03-13T09:32:54.803Z,13.90
2019-03-13T09:35:45.325Z,13.90
2019-03-13T09:38:42.362Z,14.00
2019-03-13T09:41:27.964Z,14.00
2019-03-13T09:44:20.928Z,14.00
2019-03-13T09:47:10.482Z,14.00
2019-03-13T09:50:03.865Z,14.10
2019-03-13T09:52:46.517Z,14.10
2019-03-13T09:55:34.745Z,14.10
2019-03-13T09:58:24.212Z,14.10
2019-03-13T10:01:13.649Z,14.10
2019-03-13T10:04:02.151Z,14.10
2019-03-13T10:06:45.418Z,14.10
2019-03-13T10:09:27.045Z,14.10
2019-03-13T10:12:16.448Z,14.10
2019-03-13T10:15:17.881Z,14.20
2019-03-13T10:17:55.408Z,14.20
2019-03-13T10:21:03.079Z,14.20
2019-03-13T10:23:52.670Z,14.20
2019-03-13T10:26:55.227Z,14.30
2019-03-13T10:29:44.977Z,14.30
2019-03-13T10:32:40.786Z,14.30
2019-03-13T10:35:18.698Z,14.40
2019-03-13T10:38:17.120Z,14.40
2019-03-13T10:41:05.207Z,14.40
2019-03-13T10:43:51.119Z,14.40
2019-03-13T10:46:52.507Z,14.40
2019-03-13T10:49:42.461Z,14.40
2019-03-13T10:52:30.165Z,14.40
2019-03-13T10:55:22.610Z,14.50
2019-03-13T10:58:03.813Z,14.50
2019-03-13T11:00:38.889Z,14.50
2019-03-13T11:03:34.306Z,14.60
2019-03-13T11:06:32.725Z,14.60
2019-03-13T11:09:24.984Z,14.70
2019-03-13T11:12:20.381Z,14.70
2019-03-13T11:15:13.013Z,14.70
2019-03-13T11:18:01.423Z,14.80
2019-03-13T11:20:54.454Z,14.80
2019-03-13T11:23:40.277Z,14.80
2019-03-13T11:26:33.781Z,14.90
2019-03-13T11:29:21.843Z,14.90
2019-03-13T11:32:04.480Z,15.00
2019-03-13T11:34:52.560Z,15.00
2019-03-13T11:37:37.630Z,15.10
2019-03-13T11:40:27.322Z,15.10
2019-03-13T11:43:10.612Z,15.30
2019-03-13T11:46:09.083Z,15.40
2019-03-13T11:48:54.356Z,15.60
2019-03-13T11:51:52.871Z,15.90
2019-03-13T11:54:32.389Z,16.10
2019-03-13T11:57:21.850Z,16.40
2019-03-13T12:00:06.880Z,16.50
2019-03-13T12:02:59.571Z,16.70
2019-03-13T12:05:50.193Z,16.90
2019-03-13T12:08:39.157Z,17.00
2019-03-13T12:11:28.788Z,17.10
2019-03-13T12:14:16.921Z,17.20
2019-03-13T12:16:58.790Z,17.30
2019-03-13T12:19:38.812Z,17.30
2019-03-13T12:22:40.313Z,17.40
2019-03-13T12:25:33.702Z,17.40
2019-03-13T12:28:22.091Z,17.50
2019-03-13T12:31:20.697Z,17.60
2019-03-13T12:34:05.217Z,17.60
2019-03-13T12:36:51.788Z,17.60
2019-03-13T12:39:41.393Z,17.50
2019-03-13T12:42:36.564Z,17.50
2019-03-13T12:45:43.300Z,17.50
2019-03-13T12:48:31.454Z,17.50
2019-03-13T12:51:18.738Z,17.40
2019-03-13T12:54:00.109Z,17.40
2019-03-13T12:56:45.732Z,17.30
2019-03-13T12:59:38.552Z,17.20
2019-03-13T13:02:28.069Z,17.20
2019-03-13T13:05:29.900Z,17.20
2019-03-13T13:08:22.279Z,17.20
2019-03-13T13:11:03.524Z,17.20
2019-03-13T13:13:51.915Z,17.10
2019-03-13T13:16:39.957Z,17.10
2019-03-13T13:19:10.570Z,17.00
2019-03-13T13:21:41.307Z,17.00
2019-03-13T13:24:11.970Z,17.00
2019-03-13T13:26:42.669Z,17.00
2019-03-13T13:29:13.619Z,16.90
2019-03-13T13:31:44.223Z,16.90
2019-03-13T13:34:15.089Z,16.90
2019-03-13T13:36:45.707Z,16.90
2019-03-13T13:39:16.298Z,16.90
2019-03-13T13:41:46.768Z,16.90
2019-03-13T13:44:17.291Z,16.90
2019-03-13T13:46:47.782Z,16.90
2019-03-13T13:49:18.338Z,16.90
2019-03-13T13:51:48.869Z,16.90
2019-03-13T13:54:19.342Z,16.90
2019-03-13T13:56:49.902Z,16.90
2019-03-13T13:59:20.419Z,16.90
2019-03-13T14:01:50.901Z,16.90
2019-03-13T14:04:21.441Z,16.80
2019-03-13T14:06:51.967Z,16.80
2019-03-13T14:09:22.489Z,16.80
2019-03-13T14:11:53.022Z,16.80
2019-03-13T14:14:23.410Z,16.80
2019-03-13T14:16:53.881Z,16.70
2019-03-13T14:19:24.405Z,16.70
2019-03-13T14:21:54.938Z,16.70
2019-03-13T14:24:25.609Z,16.70
2019-03-13T14:26:56.276Z,16.70
2019-03-13T14:29:26.823Z,16.70
2019-03-13T14:31:57.473Z,16.70
2019-03-13T14:34:28.012Z,16.70
2019-03-13T14:36:58.681Z,16.60
2019-03-13T14:39:29.130Z,16.60
2019-03-13T14:41:59.681Z,16.60
2019-03-13T14:44:30.263Z,16.50
2019-03-13T14:47:00.846Z,16.50
2019-03-13T14:49:31.438Z,16.50
2019-03-13T14:52:02.068Z,16.50
2019-03-13T14:54:32.532Z,16.40
2019-03-13T14:57:03.717Z,16.40
2019-03-13T14:59:34.319Z,16.40
2019-03-13T15:02:05.027Z,16.30
2019-03-13T15:04:36.431Z,16.30
2019-03-13T15:07:10.093Z,16.20
2019-03-13T15:09:40.596Z,16.10
2019-03-13T15:12:13.914Z,16.10
2019-03-13T15:14:44.486Z,16.00
2019-03-13T15:17:14.907Z,16.00
2019-03-13T15:19:45.375Z,15.90
2019-03-13T15:22:15.936Z,15.90
2019-03-13T15:24:46.472Z,15.90
2019-03-13T15:27:16.973Z,15.80
2019-03-13T15:29:47.585Z,15.70
2019-03-13T15:32:18.027Z,15.70
2019-03-13T15:34:48.512Z,15.70
2019-03-13T15:37:19.083Z,15.70
2019-03-13T15:39:49.695Z,15.70
2019-03-13T15:42:20.291Z,15.70
2019-03-13T15:44:51.878Z,15.70
2019-03-13T15:47:22.409Z,15.70
2019-03-13T15:49:53.021Z,15.70
2019-03-13T15:52:23.546Z,15.70
2019-03-13T15:54:54.012Z,15.70
2019-03-13T15:57:24.549Z,15.70
2019-03-13T15:59:54.993Z,15.70
2019-03-13T16:02:25.752Z,15.70
2019-03-13T16:04:56.341Z,15.60
2019-03-13T16:07:26.769Z,15.60
2019-03-13T16:09:58.351Z,15.60
2019-03-13T16:12:28.892Z,15.60
2019-03-13T16:14:59.354Z,15.60
2019-03-13T16:17:29.910Z,15.60
2019-03-13T16:20:00.755Z,15.60
2019-03-13T16:22:31.662Z,15.60
2019-03-13T16:25:02.124Z,15.60
2019-03-13T16:27:34.297Z,15.60
2019-03-13T16:30:06.369Z,15.60
2019-03-13T16:32:43.945Z,15.60
2019-03-13T16:35:09.581Z,15.60
2019-03-13T16:37:41.731Z,15.60
2019-03-13T16:40:15.222Z,15.60
2019-03-13T16:42:46.139Z,15.50
2019-03-13T16:45:16.901Z,15.50
2019-03-13T16:47:47.484Z,15.50
2019-03-13T16:50:19.525Z,15.40
2019-03-13T16:52:50.168Z,15.40
2019-03-13T16:55:20.862Z,15.40
2019-03-13T16:57:51.558Z,15.40
2019-03-13T17:00:24.881Z,15.40
2019-03-13T17:02:55.775Z,15.30
2019-03-13T17:05:26.410Z,15.30
2019-03-13T17:07:56.987Z,15.30
2019-03-13T17:10:27.604Z,15.30
2019-03-13T17:12:58.197Z,15.30
2019-03-13T17:15:29.184Z,15.30
2019-03-13T17:17:59.707Z,15.20
2019-03-13T17:20:30.489Z,15.20
2019-03-13T17:23:01.053Z,15.20
2019-03-13T17:25:33.901Z,15.20
2019-03-13T17:28:04.488Z,15.20
2019-03-13T17:30:35.264Z,15.20
2019-03-13T17:33:05.865Z,15.20
2019-03-13T17:35:36.577Z,15.10
2019-03-13T17:38:07.154Z,15.10
2019-03-13T17:40:38.644Z,15.10
2019-03-13T17:43:09.213Z,15.10
2019-03-13T17:45:39.966Z,15.10
2019-03-13T17:48:12.971Z,15.10
2019-03-13T17:50:43.554Z,15.10
2019-03-13T17:53:14.072Z,15.00
2019-03-13T17:55:44.667Z,15.00
2019-03-13T17:58:16.423Z,15.00
2019-03-13T18:00:49.337Z,15.00
2019-03-13T18:03:20.660Z,14.90
2019-03-13T18:05:51.297Z,14.90
2019-03-13T18:08:24.985Z,14.90
2019-03-13T18:10:55.556Z,14.80
2019-03-13T18:13:26.305Z,14.70
2019-03-13T18:15:56.856Z,14.70
2019-03-13T18:18:27.366Z,14.70
2019-03-13T18:20:57.958Z,14.60
2019-03-13T18:23:28.588Z,14.50
2019-03-13T18:25:59.516Z,14.50
2019-03-13T18:28:30.071Z,14.50
2019-03-13T18:31:01.947Z,14.40
2019-03-13T18:33:32.812Z,14.40
2019-03-13T18:36:03.358Z,14.40
2019-03-13T18:38:33.968Z,14.30
2019-03-13T18:41:04.596Z,14.30
2019-03-13T18:43:35.160Z,14.30
2019-03-13T18:46:06.739Z,14.30
2019-03-13T18:48:37.152Z,14.30
2019-03-13T18:51:07.720Z,14.30
2019-03-13T18:53:39.184Z,14.30
2019-03-13T18:56:09.735Z,14.30
2019-03-13T18:58:43.297Z,14.30
2019-03-13T19:01:13.945Z,14.30
2019-03-13T19:03:44.948Z,14.40
2019-03-13T19:06:16.568Z,14.40
2019-03-13T19:08:47.205Z,14.40
2019-03-13T19:11:17.846Z,14.40
2019-03-13T19:13:48.815Z,14.40
2019-03-13T19:16:20.317Z,14.40
2019-03-13T19:18:50.885Z,14.40
2019-03-13T19:21:21.381Z,14.40
2019-03-13T19:23:52.080Z,14.40
2019-03-13T19:26:22.797Z,14.40
2019-03-13T19:28:54.672Z,14.40
2019-03-13T19:31:25.258Z,14.40
2019-03-13T19:33:55.913Z,14.40
2019-03-13T19:36:26.451Z,14.40
2019-03-13T19:38:57.041Z,14.40
2019-03-13T19:41:27.664Z,14.40
2019-03-13T19:43:58.205Z,14.40
2019-03-13T19:46:31.952Z,14.40
2019-03-13T19:49:01.148Z,14.40
2019-03-13T19:51:31.702Z,14.40
2019-03-13T19:54:02.498Z,14.40
2019-03-13T19:56:35.140Z,14.40
2019-03-13T19:59:08.097Z,14.40
2019-03-13T20:01:39.077Z,14.40
2019-03-13T20:04:09.812Z,14.30
2019-03-13T20:06:42.451Z,14.30
2019-03-13T20:09:12.543Z,14.30
2019-03-13T20:11:43.753Z,14.30
2019-03-13T20:14:15.872Z,14.30
2019-03-13T20:16:46.705Z,14.30
2019-03-13T20:19:18.463Z,14.20
2019-03-13T20:21:49.462Z,14.20
2019-03-13T20:24:19.981Z,14.20
2019-03-13T20:26:50.661Z,14.20
2019-03-13T20:29:22.309Z,14.20
2019-03-13T20:31:52.853Z,14.20
2019-03-13T20:34:23.499Z,14.20
2019-03-13T20:36:54.109Z,14.20
2019-03-13T20:39:24.673Z,14.20
2019-03-13T20:41:55.230Z,14.10
2019-03-13T20:44:25.698Z,14.10
2019-03-13T20:46:56.387Z,14.10
2019-03-13T20:49:26.912Z,14.10
2019-03-13T20:51:57.471Z,14.10
2019-03-13T20:54:28.040Z,14.10
2019-03-13T20:57:00.139Z,14.10
2019-03-13T20:59:32.585Z,14.00
2019-03-13T21:02:03.330Z,14.10
2019-03-13T21:04:34.103Z,14.10
2019-03-13T21:07:04.871Z,14.00
2019-03-13T21:09:35.518Z,14.00
2019-03-13T21:12:07.955Z,14.00
2019-03-13T21:14:39.903Z,14.00
2019-03-13T21:17:10.898Z,14.00
2019-03-13T21:19:41.666Z,14.00
2019-03-13T21:22:12.278Z,14.00
2019-03-13T21:24:42.871Z,14.00
2019-03-13T21:27:13.430Z,14.00
2019-03-13T21:29:44.058Z,14.00
2019-03-13T21:32:14.593Z,13.90
2019-03-13T21:34:45.145Z,13.90
2019-03-13T21:37:16.228Z,13.90
2019-03-13T21:39:46.931Z,13.90
2019-03-13T21:42:17.554Z,13.90
2019-03-13T21:44:48.117Z,13.90
2019-03-13T21:47:18.817Z,13.90
2019-03-13T21:49:50.221Z,13.90
2019-03-13T21:52:21.564Z,13.80
2019-03-13T21:54:55.669Z,13.80
2019-03-13T21:57:29.438Z,13.80
2019-03-13T22:00:01.071Z,13.80
2019-03-13T22:02:36.472Z,13.80
2019-03-13T22:05:05.868Z,13.70
2019-03-13T22:07:37.104Z,13.70
2019-03-13T22:10:07.952Z,13.70
2019-03-13T22:12:38.579Z,13.70
2019-03-13T22:15:10.429Z,13.70
2019-03-13T22:17:41.041Z,13.60
2019-03-13T22:20:12.135Z,13.60
2019-03-13T22:22:42.695Z,13.60
2019-03-13T22:25:13.695Z,13.60
2019-03-13T22:27:44.284Z,13.60
2019-03-13T22:30:17.614Z,13.50
2019-03-13T22:32:48.290Z,13.50
2019-03-13T22:35:19.049Z,13.50
2019-03-13T22:37:49.961Z,13.50
2019-03-13T22:40:20.642Z,13.40
2019-03-13T22:42:51.195Z,13.40
2019-03-13T22:45:23.186Z,13.40
2019-03-13T22:47:53.752Z,13.40
2019-03-13T22:50:24.335Z,13.40
2019-03-13T22:52:54.949Z,13.30
2019-03-13T22:55:25.532Z,13.30
2019-03-13T22:57:56.097Z,13.30
2019-03-13T23:01:19.894Z,13.30
2019-03-13T23:03:51.566Z,13.20
2019-03-13T23:06:22.326Z,13.20
2019-03-13T23:08:53.197Z,13.20
2019-03-13T23:11:23.713Z,13.20
2019-03-13T23:13:54.242Z,13.10
2019-03-13T23:16:24.766Z,13.10
2019-03-13T23:18:55.322Z,13.10
2019-03-13T23:21:25.900Z,13.00
2019-03-13T23:23:57.456Z,13.00
2019-03-13T23:26:28.224Z,13.00
2019-03-13T23:28:58.976Z,13.00
2019-03-13T23:31:29.571Z,13.00
2019-03-13T23:34:00.218Z,12.90
2019-03-13T23:36:30.789Z,12.90
2019-03-13T23:39:01.306Z,12.90
2019-03-13T23:41:34.475Z,12.90
2019-03-13T23:44:05.224Z,12.90
2019-03-13T23:46:35.653Z,12.80
2019-03-13T23:49:06.253Z,12.80
2019-03-13T23:51:38.452Z,12.80
2019-03-13T23:54:08.973Z,12.80
2019-03-13T23:56:41.001Z,12.80
2019-03-13T23:59:11.406Z,12.80
